createdAt,value
2022-11-24T00:01:16.498Z,7.07
2022-11-24T00:03:45.565Z,6.67
2022-11-24T00:06:18.795Z,6.86
2022-11-24T00:08:52.084Z,6.95
2022-11-24T00:11:21.581Z,6.78
2022-11-24T00:13:48.301Z,6.95
2022-11-24T00:16:18.706Z,7.03
2022-11-24T00:18:47.943Z,7.16
2022-11-24T00:21:16.889Z,6.51
2022-11-24T00:23:44.810Z,6.47
2022-11-24T00:26:13.243Z,6.89
2022-11-24T00:28:41.415Z,6.56
2022-11-24T00:31:30.212Z,6.69
2022-11-24T00:34:00.971Z,6.56
2022-11-24T00:36:30.647Z,6.57
2022-11-24T00:39:07.078Z,6.90
2022-11-24T00:41:34.376Z,6.03
2022-11-24T00:44:01.380Z,6.33
2022-11-24T00:46:29.002Z,6.44
2022-11-24T00:48:55.931Z,6.40
2022-11-24T00:51:30.154Z,6.28
2022-11-24T00:54:01.183Z,6.28
2022-11-24T00:56:29.657Z,6.24
2022-11-24T00:58:57.260Z,5.89
2022-11-24T01:01:27.320Z,6.06
2022-11-24T01:03:55.264Z,6.54
2022-11-24T01:06:25.009Z,6.37
2022-11-24T01:08:52.583Z,5.98
2022-11-24T01:11:20.845Z,5.90
2022-11-24T01:13:53.099Z,5.43
2022-11-24T01:16:23.385Z,5.89
2022-11-24T01:18:50.671Z,5.74
2022-11-24T01:21:18.479Z,6.17
2022-11-24T01:23:45.148Z,5.74
2022-11-24T01:26:15.873Z,5.71
2022-11-24T01:28:46.965Z,5.93
2022-11-24T01:31:16.030Z,6.55
2022-11-24T01:33:42.992Z,5.41
2022-11-24T01:36:09.828Z,5.14
2022-11-24T01:38:36.581Z,5.33
2022-11-24T01:41:15.140Z,5.35
2022-11-24T01:43:43.942Z,5.41
2022-11-24T01:46:32.117Z,5.76
2022-11-24T01:49:10.079Z,6.03
2022-11-24T01:51:43.646Z,5.26
2022-11-24T01:54:25.575Z,5.32
2022-11-24T01:57:08.070Z,5.43
2022-11-24T01:59:35.116Z,5.81
2022-11-24T02:02:02.181Z,5.51
2022-11-24T02:04:33.352Z,5.61
2022-11-24T02:07:03.659Z,6.07
2022-11-24T02:09:41.742Z,6.38
2022-11-24T02:12:09.495Z,6.27
2022-11-24T02:14:38.406Z,6.04
2022-11-24T02:17:05.337Z,5.85
2022-11-24T02:19:41.297Z,5.88
2022-11-24T02:22:33.550Z,6.02
2022-11-24T02:25:07.545Z,6.23
2022-11-24T02:27:34.489Z,6.41
2022-11-24T02:30:01.412Z,6.13
2022-11-24T02:32:33.089Z,5.90
2022-11-24T02:35:07.422Z,5.90
2022-11-24T02:37:34.230Z,6.06
2022-11-24T02:40:01.111Z,5.72
2022-11-24T02:42:33.819Z,5.80
2022-11-24T02:45:01.696Z,6.31
2022-11-24T02:47:28.715Z,6.44
2022-11-24T02:49:55.535Z,6.26
2022-11-24T02:52:22.335Z,6.56
2022-11-24T02:54:48.965Z,6.47
2022-11-24T02:57:15.759Z,6.05
2022-11-24T02:59:42.602Z,6.18
2022-11-24T03:02:10.355Z,6.09
2022-11-24T03:04:37.152Z,5.91
2022-11-24T03:07:04.114Z,6.09
2022-11-24T03:09:31.438Z,6.34
2022-11-24T03:11:58.254Z,6.41
2022-11-24T03:14:24.928Z,7.00
2022-11-24T03:16:51.624Z,6.69
2022-11-24T03:19:18.444Z,6.63
2022-11-24T03:21:45.241Z,6.75
2022-11-24T03:24:12.060Z,7.27
2022-11-24T03:26:38.681Z,6.76
2022-11-24T03:29:05.507Z,6.61
2022-11-24T03:31:32.405Z,6.54
2022-11-24T03:33:59.308Z,6.17
2022-11-24T03:36:26.442Z,6.22
2022-11-24T03:38:53.138Z,6.63
2022-11-24T03:41:19.824Z,6.81
2022-11-24T03:43:46.451Z,7.11
2022-11-24T03:46:13.382Z,6.24
2022-11-24T03:48:40.420Z,6.94
2022-11-24T03:51:07.353Z,6.66
2022-11-24T03:53:34.245Z,6.88
2022-11-24T03:56:02.042Z,6.49
2022-11-24T03:58:29.778Z,6.62
2022-11-24T04:00:57.604Z,6.46
2022-11-24T04:03:24.704Z,7.21
2022-11-24T04:05:52.018Z,7.42
2022-11-24T04:08:19.502Z,7.71
2022-11-24T04:10:51.108Z,7.33
2022-11-24T04:13:21.106Z,6.74
2022-11-24T04:15:48.005Z,6.67
2022-11-24T04:18:14.947Z,7.49
2022-11-24T04:20:42.386Z,7.15
2022-11-24T04:23:10.519Z,7.53
2022-11-24T04:25:38.118Z,7.83
2022-11-24T04:28:04.775Z,7.71
2022-11-24T04:30:31.674Z,7.61
2022-11-24T04:32:58.797Z,7.12
2022-11-24T04:35:25.443Z,6.57
2022-11-24T04:37:52.347Z,7.31
2022-11-24T04:40:19.889Z,7.14
2022-11-24T04:42:56.768Z,7.58
2022-11-24T04:45:24.092Z,7.47
2022-11-24T04:47:51.265Z,7.85
2022-11-24T04:50:18.290Z,7.24
2022-11-24T04:52:45.156Z,7.45
2022-11-24T04:55:11.954Z,7.68
2022-11-24T04:57:38.825Z,7.23
2022-11-24T05:00:07.486Z,7.76
2022-11-24T05:02:34.184Z,7.52
2022-11-24T05:05:00.824Z,6.89
2022-11-24T05:07:27.765Z,7.15
2022-11-24T05:10:13.292Z,7.38
2022-11-24T05:12:39.971Z,7.93
2022-11-24T05:15:07.719Z,8.04
2022-11-24T05:17:37.912Z,8.58
2022-11-24T05:20:06.669Z,8.13
2022-11-24T05:22:33.762Z,7.99
2022-11-24T05:25:00.677Z,7.90
2022-11-24T05:27:27.519Z,8.06
2022-11-24T05:29:54.162Z,7.84
2022-11-24T05:32:20.803Z,7.87
2022-11-24T05:34:47.901Z,7.85
2022-11-24T05:37:14.750Z,8.17
2022-11-24T05:39:41.420Z,7.79
2022-11-24T05:42:27.570Z,8.87
2022-11-24T05:44:54.326Z,7.56
2022-11-24T05:47:21.440Z,8.35
2022-11-24T05:49:48.316Z,8.18
2022-11-24T05:52:16.584Z,8.89
2022-11-24T05:54:43.444Z,9.43
2022-11-24T05:57:10.101Z,8.50
2022-11-24T05:59:37.191Z,7.22
2022-11-24T06:02:04.277Z,7.35
2022-11-24T06:04:31.616Z,8.15
2022-11-24T06:06:58.610Z,7.96
2022-11-24T06:09:25.445Z,8.32
2022-11-24T06:11:52.132Z,7.70
2022-11-24T06:14:18.942Z,8.15
2022-11-24T06:16:45.657Z,8.15
2022-11-24T06:19:13.101Z,7.65
2022-11-24T06:21:39.929Z,6.77
2022-11-24T06:24:07.158Z,7.47
2022-11-24T06:26:33.887Z,6.53
2022-11-24T06:29:01.229Z,7.01
2022-11-24T06:31:28.162Z,7.26
2022-11-24T06:33:55.011Z,6.64
2022-11-24T06:36:21.880Z,7.15
2022-11-24T06:38:48.636Z,6.63
2022-11-24T06:41:16.359Z,11.23
2022-11-24T06:43:46.296Z,7.96
2022-11-24T06:46:13.625Z,5.89
2022-11-24T06:48:40.339Z,6.12
2022-11-24T06:51:10.578Z,6.12
2022-11-24T06:53:39.623Z,5.73
2022-11-24T06:56:15.235Z,5.28
2022-11-24T06:58:48.614Z,5.15
2022-11-24T07:01:24.097Z,4.92
2022-11-24T07:03:52.742Z,4.95
2022-11-24T07:06:20.758Z,4.81
2022-11-24T07:08:48.849Z,4.66
2022-11-24T07:11:19.037Z,5.22
2022-11-24T07:13:47.096Z,5.21
2022-11-24T07:16:15.633Z,4.94
2022-11-24T07:18:44.410Z,4.66
2022-11-24T07:21:11.765Z,4.64
2022-11-24T07:23:38.643Z,4.69
2022-11-24T07:26:07.330Z,4.00
2022-11-24T07:28:36.598Z,4.39
2022-11-24T07:31:12.537Z,4.45
2022-11-24T07:33:39.576Z,4.36
2022-11-24T07:36:08.243Z,3.82
2022-11-24T07:38:36.162Z,3.51
2022-11-24T07:41:05.629Z,3.75
2022-11-24T07:43:37.068Z,4.29
2022-11-24T07:46:05.653Z,3.46
2022-11-24T07:48:33.312Z,3.31
2022-11-24T07:54:10.072Z,3.35
2022-11-24T07:56:36.792Z,3.04
2022-11-24T07:59:15.498Z,3.26
2022-11-24T08:01:42.314Z,3.31
2022-11-24T08:04:09.127Z,3.25
2022-11-24T08:06:40.938Z,2.99
2022-11-24T08:09:11.395Z,2.92
2022-11-24T08:11:38.029Z,3.12
2022-11-24T08:14:05.027Z,3.41
2022-11-24T08:16:34.246Z,3.03
2022-11-24T08:19:01.208Z,3.12
2022-11-24T08:21:28.159Z,2.80
2022-11-24T08:23:56.695Z,2.40
2022-11-24T08:26:24.999Z,2.50
2022-11-24T08:28:59.500Z,2.86
2022-11-24T08:31:33.343Z,2.97
2022-11-24T08:34:02.834Z,2.39
2022-11-24T08:36:33.891Z,2.60
2022-11-24T08:39:01.894Z,2.84
2022-11-24T08:41:33.731Z,2.95
2022-11-24T08:44:04.052Z,3.02
2022-11-24T08:46:30.925Z,2.72
2022-11-24T08:48:57.754Z,2.87
2022-11-24T08:51:26.773Z,2.51
2022-11-24T08:53:58.712Z,2.51
2022-11-24T08:56:27.535Z,2.33
2022-11-24T08:58:55.868Z,2.63
2022-11-24T09:01:23.517Z,2.90
2022-11-24T09:03:51.565Z,5.92
2022-11-24T09:06:25.203Z,3.45
2022-11-24T09:08:54.626Z,2.55
2022-11-24T09:11:22.209Z,2.69
2022-11-24T09:13:49.480Z,2.84
2022-11-24T09:16:18.983Z,3.03
2022-11-24T09:18:47.235Z,2.74
2022-11-24T09:21:17.479Z,2.96
2022-11-24T09:23:50.239Z,3.11
2022-11-24T09:26:21.625Z,3.03
2022-11-24T09:28:48.937Z,2.78
2022-11-24T09:31:17.993Z,3.16
2022-11-24T09:33:45.196Z,2.99
2022-11-24T09:36:12.490Z,3.06
2022-11-24T09:38:39.689Z,3.10
2022-11-24T09:41:18.972Z,3.43
2022-11-24T09:44:00.638Z,3.77
2022-11-24T09:46:43.620Z,8.59
2022-11-24T09:49:27.590Z,3.96
2022-11-24T09:51:56.990Z,3.16
2022-11-24T09:54:28.666Z,3.24
2022-11-24T09:57:01.091Z,3.66
2022-11-24T09:59:28.522Z,3.60
2022-11-24T10:01:56.532Z,3.46
2022-11-24T10:04:33.102Z,3.80
2022-11-24T10:07:15.116Z,3.58
2022-11-24T10:10:10.155Z,3.79
2022-11-24T10:12:44.883Z,4.04
2022-11-24T10:15:25.561Z,4.00
2022-11-24T10:18:04.764Z,4.15
2022-11-24T10:20:57.288Z,3.77
2022-11-24T10:23:41.809Z,4.18
2022-11-24T10:26:18.885Z,5.48
2022-11-24T10:28:55.629Z,4.59
2022-11-24T10:31:35.951Z,9.00
2022-11-24T10:34:37.507Z,9.70
2022-11-24T10:37:13.496Z,6.83
2022-11-24T10:39:57.099Z,5.93
2022-11-24T10:42:33.462Z,3.92
2022-11-24T10:45:17.082Z,4.05
2022-11-24T10:47:46.124Z,4.40
2022-11-24T10:50:25.328Z,4.89
2022-11-24T10:55:58.647Z,4.66
2022-11-24T10:58:39.081Z,4.88
2022-11-24T11:01:15.156Z,4.68
2022-11-24T11:03:52.034Z,4.62
2022-11-24T11:06:25.351Z,4.81
2022-11-24T11:09:07.288Z,5.28
2022-11-24T11:14:07.904Z,5.05
2022-11-24T11:16:38.578Z,4.74
2022-11-24T11:19:50.827Z,4.98
2022-11-24T11:22:28.553Z,4.99
2022-11-24T11:25:18.795Z,4.40
2022-11-24T11:27:46.002Z,4.83
2022-11-24T11:36:15.494Z,4.77
2022-11-24T11:38:45.410Z,5.14
2022-11-24T11:41:21.939Z,4.69
2022-11-24T11:44:00.040Z,4.76
2022-11-24T11:46:32.540Z,5.20
2022-11-24T11:49:00.266Z,4.88
2022-11-24T11:51:48.859Z,4.97
2022-11-24T11:54:51.445Z,4.90
2022-11-24T11:57:55.035Z,5.10
2022-11-24T12:00:22.777Z,5.10
2022-11-24T12:03:16.458Z,5.83
2022-11-24T12:06:21.965Z,5.22
2022-11-24T12:09:20.412Z,4.89
2022-11-24T12:12:25.144Z,4.66
2022-11-24T12:15:23.776Z,4.89
2022-11-24T12:18:55.990Z,5.65
2022-11-24T12:21:45.023Z,5.51
2022-11-24T12:24:36.763Z,5.12
2022-11-24T12:28:06.352Z,5.75
2022-11-24T12:31:03.259Z,5.44
2022-11-24T12:34:04.785Z,5.25
2022-11-24T12:36:43.941Z,4.68
2022-11-24T12:39:29.140Z,4.84
2022-11-24T12:42:14.275Z,5.06
2022-11-24T12:45:14.455Z,5.19
2022-11-24T12:48:05.278Z,5.02
2022-11-24T12:50:38.927Z,4.92
2022-11-24T12:53:19.036Z,8.37
2022-11-24T12:55:47.769Z,6.23
2022-11-24T12:58:34.477Z,7.14
2022-11-24T13:01:16.433Z,5.04
2022-11-24T13:04:01.446Z,4.79
2022-11-24T13:06:53.271Z,4.90
2022-11-24T13:09:20.219Z,5.12
2022-11-24T13:11:57.896Z,5.58
2022-11-24T13:14:33.306Z,5.59
2022-11-24T13:19:50.049Z,5.45
2022-11-24T13:22:25.093Z,5.23
2022-11-24T13:25:17.287Z,5.18
2022-11-24T13:27:48.403Z,5.41
2022-11-24T13:30:53.470Z,5.57
2022-11-24T13:33:32.333Z,5.52
2022-11-24T13:36:01.699Z,5.52
2022-11-24T13:38:51.972Z,5.34
2022-11-24T13:41:33.659Z,5.41
2022-11-24T13:44:15.719Z,5.60
2022-11-24T13:47:25.064Z,5.42
2022-11-24T13:49:51.722Z,5.43
2022-11-24T13:52:37.207Z,5.35
2022-11-24T13:55:19.471Z,6.07
2022-11-24T13:57:57.471Z,18.03
2022-11-24T14:00:33.986Z,77.89
2022-11-24T14:03:19.568Z,15.60
2022-11-24T14:05:50.745Z,11.62
2022-11-24T14:08:26.598Z,31.37
2022-11-24T14:10:56.545Z,13.24
2022-11-24T14:13:23.301Z,12.01
2022-11-24T14:16:04.415Z,18.95
2022-11-24T14:18:33.971Z,10.00
2022-11-24T14:21:16.627Z,4.53
2022-11-24T14:23:52.088Z,4.64
2022-11-24T14:26:26.554Z,5.43
2022-11-24T14:28:54.741Z,8.93
2022-11-24T14:31:25.079Z,12.64
2022-11-24T14:34:11.814Z,5.71
2022-11-24T14:36:39.781Z,6.02
2022-11-24T14:39:11.075Z,5.92
2022-11-24T14:41:38.059Z,6.00
2022-11-24T14:44:25.167Z,5.83
2022-11-24T14:47:03.997Z,5.78
2022-11-24T14:49:33.134Z,5.96
2022-11-24T14:52:12.796Z,5.03
2022-11-24T14:55:07.552Z,7.97
2022-11-24T14:57:44.399Z,6.04
2022-11-24T15:00:20.805Z,14.86
2022-11-24T15:02:56.210Z,8.87
2022-11-24T15:05:25.345Z,9.53
2022-11-24T15:08:02.781Z,5.40
2022-11-24T15:10:34.692Z,4.70
2022-11-24T15:13:05.599Z,6.12
2022-11-24T15:15:36.466Z,14.22
2022-11-24T15:18:06.285Z,21.78
2022-11-24T15:20:41.464Z,9.65
2022-11-24T15:23:22.803Z,7.56
2022-11-24T15:25:54.639Z,7.17
2022-11-24T15:28:25.681Z,6.44
2022-11-24T15:30:54.776Z,28.04
2022-11-24T15:33:23.106Z,46.79
2022-11-24T15:35:49.799Z,43.00
2022-11-24T15:38:17.428Z,40.46
2022-11-24T15:40:47.586Z,16.94
2022-11-24T15:43:37.201Z,13.81
2022-11-24T15:46:05.632Z,7.78
2022-11-24T15:48:32.889Z,7.69
2022-11-24T15:51:02.799Z,17.50
2022-11-24T15:53:32.839Z,22.35
2022-11-24T15:56:03.265Z,20.42
2022-11-24T15:58:30.076Z,16.22
2022-11-24T16:00:56.978Z,11.00
2022-11-24T16:03:46.306Z,9.88
2022-11-24T16:06:23.378Z,45.27
2022-11-24T16:08:51.403Z,14.24
2022-11-24T16:11:18.140Z,17.25
2022-11-24T16:13:51.538Z,19.54
2022-11-24T16:16:19.796Z,9.31
2022-11-24T16:18:46.723Z,8.23
2022-11-24T16:21:13.369Z,8.60
2022-11-24T16:23:40.171Z,9.60
2022-11-24T16:26:07.555Z,10.12
2022-11-24T16:28:34.670Z,10.11
2022-11-24T16:31:01.573Z,10.27
2022-11-24T16:33:31.606Z,9.12
2022-11-24T16:35:58.581Z,9.01
2022-11-24T16:38:25.451Z,8.49
2022-11-24T16:40:54.267Z,7.57
2022-11-24T16:43:20.948Z,7.64
2022-11-24T16:46:03.015Z,7.35
2022-11-24T16:48:33.803Z,8.05
2022-11-24T16:51:06.360Z,8.48
2022-11-24T16:53:33.005Z,9.21
2022-11-24T16:55:59.658Z,7.47
2022-11-24T16:58:26.341Z,7.07
2022-11-24T17:00:53.048Z,8.46
2022-11-24T17:03:19.855Z,11.46
2022-11-24T17:06:07.367Z,10.24
2022-11-24T17:08:35.974Z,9.80
2022-11-24T17:11:13.973Z,11.56
2022-11-24T17:13:41.847Z,10.01
2022-11-24T17:16:11.499Z,7.28
2022-11-24T17:18:39.783Z,10.00
2022-11-24T17:21:10.837Z,11.52
2022-11-24T17:23:37.586Z,12.76
2022-11-24T17:26:07.687Z,8.67
2022-11-24T17:28:36.276Z,8.22
2022-11-24T17:31:23.248Z,7.25
2022-11-24T17:33:52.913Z,6.51
2022-11-24T17:36:20.159Z,9.53
2022-11-24T17:38:49.259Z,10.63
2022-11-24T17:41:16.907Z,12.98
2022-11-24T17:43:43.752Z,16.34
2022-11-24T17:46:10.998Z,25.11
2022-11-24T17:48:40.650Z,37.38
2022-11-24T17:51:12.804Z,29.92
2022-11-24T17:53:42.282Z,24.59
2022-11-24T17:56:13.515Z,34.16
2022-11-24T17:58:44.387Z,27.27
2022-11-24T18:01:12.913Z,36.65
2022-11-24T18:03:41.208Z,29.80
2022-11-24T18:06:10.784Z,32.01
2022-11-24T18:08:39.406Z,27.71
2022-11-24T18:11:15.353Z,19.07
2022-11-24T18:13:58.323Z,13.19
2022-11-24T18:16:30.040Z,8.39
2022-11-24T18:19:14.617Z,7.08
2022-11-24T18:21:44.574Z,8.19
2022-11-24T18:24:12.860Z,7.99
2022-11-24T18:26:41.501Z,8.46
2022-11-24T18:29:09.295Z,7.86
2022-11-24T18:31:37.013Z,7.24
2022-11-24T18:34:05.943Z,6.44
2022-11-24T18:36:33.037Z,6.53
2022-11-24T18:39:01.566Z,7.03
2022-11-24T18:41:28.261Z,7.35
2022-11-24T18:43:55.140Z,7.41
2022-11-24T18:46:22.170Z,7.70
2022-11-24T18:48:51.288Z,7.28
2022-11-24T18:51:18.525Z,6.75
2022-11-24T18:53:46.859Z,6.96
2022-11-24T18:56:16.381Z,6.98
2022-11-24T18:58:44.305Z,6.32
2022-11-24T19:01:17.333Z,6.09
2022-11-24T19:03:49.022Z,6.50
2022-11-24T19:06:20.449Z,5.93
2022-11-24T19:08:48.560Z,5.61
2022-11-24T19:11:35.442Z,5.76
2022-11-24T19:14:04.979Z,5.78
2022-11-24T19:16:32.832Z,5.70
2022-11-24T19:19:02.376Z,5.99
2022-11-24T19:21:38.595Z,6.59
2022-11-24T19:24:07.944Z,6.88
2022-11-24T19:26:35.365Z,15.03
2022-11-24T19:29:03.022Z,13.94
2022-11-24T19:31:30.240Z,8.37
2022-11-24T19:33:58.576Z,7.56
2022-11-24T19:36:26.442Z,10.85
2022-11-24T19:38:55.660Z,9.29
2022-11-24T19:41:25.036Z,6.69
2022-11-24T19:43:55.080Z,6.78
2022-11-24T19:46:23.301Z,10.84
2022-11-24T19:48:53.980Z,14.58
2022-11-24T19:51:32.680Z,9.80
2022-11-24T19:54:00.594Z,7.39
2022-11-24T19:56:30.149Z,6.63
2022-11-24T19:58:57.861Z,6.71
2022-11-24T20:01:30.608Z,7.42
2022-11-24T20:04:01.076Z,7.13
2022-11-24T20:06:32.744Z,6.81
2022-11-24T20:09:01.053Z,6.62
2022-11-24T20:11:28.900Z,6.32
2022-11-24T20:13:57.807Z,6.92
2022-11-24T20:16:28.267Z,6.98
2022-11-24T20:19:00.824Z,7.91
2022-11-24T20:21:32.459Z,8.05
2022-11-24T20:24:06.493Z,7.53
2022-11-24T20:26:37.016Z,7.51
2022-11-24T20:29:05.120Z,6.80
2022-11-24T20:31:35.613Z,7.07
2022-11-24T20:34:04.312Z,7.29
2022-11-24T20:36:33.687Z,6.98
2022-11-24T20:39:03.489Z,6.91
2022-11-24T20:41:34.776Z,7.05
2022-11-24T20:44:06.996Z,7.04
2022-11-24T20:46:36.046Z,6.69
2022-11-24T20:49:03.966Z,7.12
2022-11-24T20:51:34.089Z,6.56
2022-11-24T20:54:04.137Z,6.41
2022-11-24T20:56:34.220Z,7.05
2022-11-24T20:59:03.431Z,6.56
2022-11-24T21:01:38.660Z,6.29
2022-11-24T21:04:09.188Z,6.58
2022-11-24T21:06:36.756Z,6.88
2022-11-24T21:09:05.487Z,7.23
2022-11-24T21:11:32.783Z,7.09
2022-11-24T21:14:00.510Z,6.97
2022-11-24T21:16:30.503Z,7.24
2022-11-24T21:19:03.624Z,7.03
2022-11-24T21:21:34.411Z,7.04
2022-11-24T21:24:02.566Z,6.93
2022-11-24T21:26:29.631Z,7.11
2022-11-24T21:28:57.366Z,6.86
2022-11-24T21:31:24.383Z,6.55
2022-11-24T21:33:53.216Z,6.89
2022-11-24T21:36:23.402Z,6.96
2022-11-24T21:38:59.454Z,6.83
2022-11-24T21:41:28.890Z,6.78
2022-11-24T21:43:56.447Z,6.51
2022-11-24T21:46:27.904Z,6.95
2022-11-24T21:48:57.843Z,8.19
2022-11-24T21:51:24.682Z,9.85
2022-11-24T21:53:51.623Z,6.92
2022-11-24T21:56:21.098Z,5.95
2022-11-24T21:58:57.178Z,6.49
2022-11-24T22:01:30.005Z,6.42
2022-11-24T22:04:00.423Z,5.99
2022-11-24T22:06:27.520Z,6.43
2022-11-24T22:08:55.041Z,6.08
2022-11-24T22:11:24.826Z,5.51
2022-11-24T22:13:52.301Z,6.21
2022-11-24T22:16:21.885Z,5.86
2022-11-24T22:18:49.112Z,5.73
2022-11-24T22:21:33.253Z,5.78
2022-11-24T22:24:00.701Z,6.32
2022-11-24T22:26:29.257Z,5.78
2022-11-24T22:28:57.584Z,5.51
2022-11-24T22:31:27.376Z,5.91
2022-11-24T22:33:56.126Z,5.31
2022-11-24T22:36:26.663Z,5.41
2022-11-24T22:39:03.348Z,5.45
2022-11-24T22:41:40.443Z,5.33
2022-11-24T22:44:07.491Z,5.05
2022-11-24T22:46:37.128Z,5.37
2022-11-24T22:49:04.334Z,4.78
2022-11-24T22:51:37.307Z,5.01
2022-11-24T22:54:15.712Z,5.45
2022-11-24T22:56:42.652Z,5.46
2022-11-24T22:59:09.378Z,5.44
2022-11-24T23:01:36.444Z,5.39
2022-11-24T23:04:03.821Z,5.48
2022-11-24T23:06:33.189Z,5.40
2022-11-24T23:09:02.330Z,5.54
2022-11-24T23:11:38.667Z,5.90
2022-11-24T23:14:08.475Z,5.00
2022-11-24T23:16:35.307Z,4.94
2022-11-24T23:19:02.769Z,5.21
2022-11-24T23:21:32.334Z,5.38
2022-11-24T23:24:01.360Z,5.47
2022-11-24T23:26:30.813Z,5.02
2022-11-24T23:28:58.072Z,5.23
2022-11-24T23:31:28.619Z,5.27
2022-11-24T23:33:58.289Z,5.41
2022-11-24T23:36:25.869Z,5.55
2022-11-24T23:38:53.037Z,5.52
2022-11-24T23:41:25.183Z,5.46
2022-11-24T23:43:52.605Z,5.36
2022-11-24T23:46:22.400Z,5.39
2022-11-24T23:48:51.441Z,5.98
2022-11-24T23:51:22.327Z,5.70
2022-11-24T23:53:50.086Z,5.66
2022-11-24T23:56:20.297Z,5.68
2022-11-24T23:58:47.528Z,5.98
